sensor_id;sensor_type;location;lat;lon;timestamp;pressure;altitude;pressure_sealevel;temperature;humidity
74544;BME280;63016;55.030;38.710;2022-11-15T00:00:14;100638.66;;;0.47;59.07
74544;BME280;63016;55.030;38.710;2022-11-15T00:02:40;100637.00;;;0.46;59.18
74544;BME280;63016;55.030;38.710;2022-11-15T00:05:05;100631.06;;;0.46;58.94
74544;BME280;63016;55.030;38.710;2022-11-15T00:07:31;100631.16;;;0.44;59.42
74544;BME280;63016;55.030;38.710;2022-11-15T00:09:56;100634.53;;;0.45;59.33
74544;BME280;63016;55.030;38.710;2022-11-15T00:12:22;100645.72;;;0.44;58.95
74544;BME280;63016;55.030;38.710;2022-11-15T00:14:47;100638.03;;;0.44;59.60
74544;BME280;63016;55.030;38.710;2022-11-15T00:17:13;100631.16;;;0.44;58.86
74544;BME280;63016;55.030;38.710;2022-11-15T00:19:38;100626.00;;;0.44;58.91
74544;BME280;63016;55.030;38.710;2022-11-15T00:22:04;100621.69;;;0.45;59.53
74544;BME280;63016;55.030;38.710;2022-11-15T00:24:29;100612.59;;;0.39;58.88
74544;BME280;63016;55.030;38.710;2022-11-15T00:26:55;100620.94;;;0.43;59.51
74544;BME280;63016;55.030;38.710;2022-11-15T00:29:20;100619.19;;;0.43;59.18
74544;BME280;63016;55.030;38.710;2022-11-15T00:31:45;100612.50;;;0.41;59.39
74544;BME280;63016;55.030;38.710;2022-11-15T00:34:11;100611.69;;;0.40;58.86
74544;BME280;63016;55.030;38.710;2022-11-15T00:36:36;100604.91;;;0.39;58.93
74544;BME280;63016;55.030;38.710;2022-11-15T00:39:05;100599.09;;;0.36;59.31
74544;BME280;63016;55.030;38.710;2022-11-15T00:41:31;100598.19;;;0.37;59.65
74544;BME280;63016;55.030;38.710;2022-11-15T00:43:56;100590.56;;;0.35;59.21
74544;BME280;63016;55.030;38.710;2022-11-15T00:46:22;100589.66;;;0.36;59.79
74544;BME280;63016;55.030;38.710;2022-11-15T00:48:47;100600.84;;;0.35;59.86
74544;BME280;63016;55.030;38.710;2022-11-15T00:51:13;100590.38;;;0.38;58.96
74544;BME280;63016;55.030;38.710;2022-11-15T00:53:38;100588.00;;;0.35;59.23
74544;BME280;63016;55.030;38.710;2022-11-15T00:56:04;100581.28;;;0.33;58.83
74544;BME280;63016;55.030;38.710;2022-11-15T00:58:29;100578.22;;;0.26;58.77
74544;BME280;63016;55.030;38.710;2022-11-15T01:00:55;100575.66;;;0.26;58.77
74544;BME280;63016;55.030;38.710;2022-11-15T01:03:20;100583.59;;;0.21;58.41
74544;BME280;63016;55.030;38.710;2022-11-15T01:05:46;100583.69;;;0.20;59.08
74544;BME280;63016;55.030;38.710;2022-11-15T01:08:13;100580.47;;;0.16;59.14
74544;BME280;63016;55.030;38.710;2022-11-15T01:10:38;100579.69;;;0.14;59.18
74544;BME280;63016;55.030;38.710;2022-11-15T01:13:04;100576.50;;;0.11;58.95
74544;BME280;63016;55.030;38.710;2022-11-15T01:15:29;100573.09;;;0.10;59.49
74544;BME280;63016;55.030;38.710;2022-11-15T01:17:55;100585.00;;;0.11;59.27
74544;BME280;63016;55.030;38.710;2022-11-15T01:20:20;100585.75;;;0.13;59.65
74544;BME280;63016;55.030;38.710;2022-11-15T01:22:46;100582.34;;;0.13;59.34
74544;BME280;63016;55.030;38.710;2022-11-15T01:25:11;100585.75;;;0.13;59.52
74544;BME280;63016;55.030;38.710;2022-11-15T01:27:37;100578.97;;;0.12;60.10
74544;BME280;63016;55.030;38.710;2022-11-15T01:30:02;100584.78;;;0.16;59.54
74544;BME280;63016;55.030;38.710;2022-11-15T01:32:29;100573.50;;;0.18;60.36
74544;BME280;63016;55.030;38.710;2022-11-15T01:34:54;100574.16;;;0.22;59.62
74544;BME280;63016;55.030;38.710;2022-11-15T01:37:19;100580.88;;;0.24;59.63
74544;BME280;63016;55.030;38.710;2022-11-15T01:39:45;100568.78;;;0.27;60.25
74544;BME280;63016;55.030;38.710;2022-11-15T01:42:14;100573.69;;;0.31;60.19
74544;BME280;63016;55.030;38.710;2022-11-15T01:44:41;100568.53;;;0.31;59.92
74544;BME280;63016;55.030;38.710;2022-11-15T01:47:28;100562.25;;;0.37;59.87
74544;BME280;63016;55.030;38.710;2022-11-15T01:50:04;100557.09;;;0.37;60.34
74544;BME280;63016;55.030;38.710;2022-11-15T01:52:33;100556.19;;;0.38;59.66
74544;BME280;63016;55.030;38.710;2022-11-15T01:55:17;100560.25;;;0.42;59.68
74544;BME280;63016;55.030;38.710;2022-11-15T01:57:46;100558.59;;;0.41;59.74
74544;BME280;63016;55.030;38.710;2022-11-15T02:00:12;100557.88;;;0.39;60.15
74544;BME280;63016;55.030;38.710;2022-11-15T02:02:38;100559.56;;;0.38;60.37
74544;BME280;63016;55.030;38.710;2022-11-15T02:05:04;100559.56;;;0.38;59.71
74544;BME280;63016;55.030;38.710;2022-11-15T02:07:31;100555.13;;;0.42;59.90
74544;BME280;63016;55.030;38.710;2022-11-15T02:10:06;100555.88;;;0.44;60.82
74544;BME280;63016;55.030;38.710;2022-11-15T02:12:32;100556.69;;;0.44;60.33
74544;BME280;63016;55.030;38.710;2022-11-15T02:14:59;100554.75;;;0.48;60.28
74544;BME280;63016;55.030;38.710;2022-11-15T02:28:48;100543.09;;;0.58;59.77
74544;BME280;63016;55.030;38.710;2022-11-15T02:34:04;100540.44;;;0.60;60.76
74544;BME280;63016;55.030;38.710;2022-11-15T02:36:54;100540.19;;;0.64;60.48
74544;BME280;63016;55.030;38.710;2022-11-15T02:42:21;100546.81;;;0.68;60.61
74544;BME280;63016;55.030;38.710;2022-11-15T02:45:10;100559.44;;;0.71;60.33
74544;BME280;63016;55.030;38.710;2022-11-15T02:47:43;100549.13;;;0.73;60.20
74544;BME280;63016;55.030;38.710;2022-11-15T02:50:16;100540.50;;;0.74;60.78
74544;BME280;63016;55.030;38.710;2022-11-15T02:52:45;100544.59;;;0.76;60.97
74544;BME280;63016;55.030;38.710;2022-11-15T02:55:31;100552.16;;;0.80;60.68
74544;BME280;63016;55.030;38.710;2022-11-15T03:01:04;100546.00;;;0.82;60.34
74544;BME280;63016;55.030;38.710;2022-11-15T03:09:54;100538.69;;;0.90;60.96
74544;BME280;63016;55.030;38.710;2022-11-15T03:12:42;100542.00;;;0.92;60.84
74544;BME280;63016;55.030;38.710;2022-11-15T03:15:31;100544.50;;;0.94;60.21
74544;BME280;63016;55.030;38.710;2022-11-15T03:18:11;100537.50;;;0.96;60.94
74544;BME280;63016;55.030;38.710;2022-11-15T03:20:38;100538.44;;;0.95;59.83
74544;BME280;63016;55.030;38.710;2022-11-15T03:23:07;100540.84;;;0.98;60.37
74544;BME280;63016;55.030;38.710;2022-11-15T03:25:34;100538.25;;;0.98;59.74
74544;BME280;63016;55.030;38.710;2022-11-15T03:28:05;100536.50;;;0.98;59.69
74544;BME280;63016;55.030;38.710;2022-11-15T03:30:34;100545.03;;;0.99;60.18
74544;BME280;63016;55.030;38.710;2022-11-15T03:33:04;100545.78;;;1.01;59.96
74544;BME280;63016;55.030;38.710;2022-11-15T03:35:39;100546.53;;;1.03;59.68
74544;BME280;63016;55.030;38.710;2022-11-15T03:38:25;100536.25;;;1.03;59.26
74544;BME280;63016;55.030;38.710;2022-11-15T03:40:58;100536.97;;;1.05;60.14
74544;BME280;63016;55.030;38.710;2022-11-15T03:44:04;100530.91;;;1.06;60.39
74544;BME280;63016;55.030;38.710;2022-11-15T03:47:00;100533.31;;;1.09;59.95
74544;BME280;63016;55.030;38.710;2022-11-15T03:49:32;100523.88;;;1.10;60.58
74544;BME280;63016;55.030;38.710;2022-11-15T03:52:00;100525.50;;;1.11;60.24
74544;BME280;63016;55.030;38.710;2022-11-15T03:54:26;100516.06;;;1.11;60.76
74544;BME280;63016;55.030;38.710;2022-11-15T03:56:52;100502.22;;;1.14;60.30
74544;BME280;63016;55.030;38.710;2022-11-15T03:59:17;100508.19;;;1.14;60.45
74544;BME280;63016;55.030;38.710;2022-11-15T04:01:43;100512.22;;;1.18;60.80
74544;BME280;63016;55.030;38.710;2022-11-15T04:04:08;100509.47;;;1.21;60.56
74544;BME280;63016;55.030;38.710;2022-11-15T04:06:34;100519.75;;;1.21;60.80
74544;BME280;63016;55.030;38.710;2022-11-15T04:09:00;100516.16;;;1.24;60.94
74544;BME280;63016;55.030;38.710;2022-11-15T04:11:25;100513.44;;;1.27;60.84
74544;BME280;63016;55.030;38.710;2022-11-15T04:13:51;100512.41;;;1.29;60.57
74544;BME280;63016;55.030;38.710;2022-11-15T04:16:16;100503.59;;;1.34;60.22
74544;BME280;63016;55.030;38.710;2022-11-15T04:18:41;100506.91;;;1.36;60.45
74544;BME280;63016;55.030;38.710;2022-11-15T04:21:08;100502.59;;;1.36;60.56
74544;BME280;63016;55.030;38.710;2022-11-15T04:23:52;100509.41;;;1.37;60.59
74544;BME280;63016;55.030;38.710;2022-11-15T04:26:32;100511.03;;;1.38;59.70
74544;BME280;63016;55.030;38.710;2022-11-15T04:28:58;100515.34;;;1.38;59.92
74544;BME280;63016;55.030;38.710;2022-11-15T04:31:42;100513.50;;;1.40;60.23
74544;BME280;63016;55.030;38.710;2022-11-15T04:34:08;100513.59;;;1.38;60.37
74544;BME280;63016;55.030;38.710;2022-11-15T04:36:33;100509.22;;;1.40;60.53
74544;BME280;63016;55.030;38.710;2022-11-15T04:39:17;100511.84;;;1.39;60.10
74544;BME280;63016;55.030;38.710;2022-11-15T04:41:43;100505.91;;;1.38;59.38
74544;BME280;63016;55.030;38.710;2022-11-15T04:44:08;100503.16;;;1.41;60.32
74544;BME280;63016;55.030;38.710;2022-11-15T04:46:34;100499.75;;;1.41;60.06
74544;BME280;63016;55.030;38.710;2022-11-15T04:49:00;100493.97;;;1.37;59.98
74544;BME280;63016;55.030;38.710;2022-11-15T04:51:25;100501.41;;;1.42;59.85
74544;BME280;63016;55.030;38.710;2022-11-15T04:53:51;100502.94;;;1.44;60.25
74544;BME280;63016;55.030;38.710;2022-11-15T04:56:17;100495.34;;;1.43;60.45
74544;BME280;63016;55.030;38.710;2022-11-15T04:58:42;100494.41;;;1.44;60.08
74544;BME280;63016;55.030;38.710;2022-11-15T05:01:09;100493.31;;;1.48;59.74
74544;BME280;63016;55.030;38.710;2022-11-15T05:03:34;100489.81;;;1.49;60.10
74544;BME280;63016;55.030;38.710;2022-11-15T05:06:19;100487.19;;;1.50;60.64
74544;BME280;63016;55.030;38.710;2022-11-15T05:08:44;100492.22;;;1.52;60.40
74544;BME280;63016;55.030;38.710;2022-11-15T05:11:10;100486.97;;;1.53;60.27
74544;BME280;63016;55.030;38.710;2022-11-15T05:13:35;100486.03;;;1.54;60.13
74544;BME280;63016;55.030;38.710;2022-11-15T05:16:01;100486.03;;;1.54;60.21
74544;BME280;63016;55.030;38.710;2022-11-15T05:18:26;100482.56;;;1.56;60.21
74544;BME280;63016;55.030;38.710;2022-11-15T05:20:52;100482.66;;;1.54;60.50
74544;BME280;63016;55.030;38.710;2022-11-15T05:23:17;100482.47;;;1.57;60.46
74544;BME280;63016;55.030;38.710;2022-11-15T05:25:42;100479.63;;;1.62;60.78
74544;BME280;63016;55.030;38.710;2022-11-15T05:28:08;100472.72;;;1.62;60.21
74544;BME280;63016;55.030;38.710;2022-11-15T05:30:33;100482.09;;;1.63;60.90
74544;BME280;63016;55.030;38.710;2022-11-15T05:32:59;100478.59;;;1.64;60.65
74544;BME280;63016;55.030;38.710;2022-11-15T05:35:40;100475.84;;;1.67;60.87
74544;BME280;63016;55.030;38.710;2022-11-15T05:38:07;100476.66;;;1.68;60.28
74544;BME280;63016;55.030;38.710;2022-11-15T05:40:33;100479.16;;;1.69;60.74
74544;BME280;63016;55.030;38.710;2022-11-15T05:43:01;100474.75;;;1.71;60.86
74544;BME280;63016;55.030;38.710;2022-11-15T05:45:28;100473.81;;;1.72;60.79
74544;BME280;63016;55.030;38.710;2022-11-15T05:47:55;100481.34;;;1.75;60.80
74544;BME280;63016;55.030;38.710;2022-11-15T05:50:22;100481.13;;;1.78;60.82
74544;BME280;63016;55.030;38.710;2022-11-15T05:52:48;100475.09;;;1.79;61.14
74544;BME280;63016;55.030;38.710;2022-11-15T05:55:14;100478.28;;;1.83;61.13
74544;BME280;63016;55.030;38.710;2022-11-15T05:57:40;100471.31;;;1.85;60.92
74544;BME280;63016;55.030;38.710;2022-11-15T06:00:06;100465.06;;;1.89;60.87
74544;BME280;63016;55.030;38.710;2022-11-15T06:02:33;100468.34;;;1.91;60.88
74544;BME280;63016;55.030;38.710;2022-11-15T06:04:58;100477.63;;;1.94;61.06
74544;BME280;63016;55.030;38.710;2022-11-15T06:07:24;100473.09;;;1.97;60.93
74544;BME280;63016;55.030;38.710;2022-11-15T06:09:49;100466.03;;;2.01;60.74
74544;BME280;63016;55.030;38.710;2022-11-15T06:12:15;100479.53;;;2.04;60.54
74544;BME280;63016;55.030;38.710;2022-11-15T06:14:40;100473.47;;;2.05;60.93
74544;BME280;63016;55.030;38.710;2022-11-15T06:17:06;100470.69;;;2.09;61.10
74544;BME280;63016;55.030;38.710;2022-11-15T06:19:31;100469.66;;;2.11;60.99
74544;BME280;63016;55.030;38.710;2022-11-15T06:22:01;100467.72;;;2.15;61.28
74544;BME280;63016;55.030;38.710;2022-11-15T06:24:26;100474.41;;;2.17;61.49
74544;BME280;63016;55.030;38.710;2022-11-15T06:26:52;100481.13;;;2.20;61.55
74544;BME280;63016;55.030;38.710;2022-11-15T06:29:20;100471.47;;;2.23;61.10
74544;BME280;63016;55.030;38.710;2022-11-15T06:31:45;100467.78;;;2.27;61.00
74544;BME280;63016;55.030;38.710;2022-11-15T06:34:11;100460.88;;;2.28;60.74
74544;BME280;63016;55.030;38.710;2022-11-15T06:36:36;100464.88;;;2.32;61.32
74544;BME280;63016;55.030;38.710;2022-11-15T06:39:05;100462.03;;;2.37;61.38
74544;BME280;63016;55.030;38.710;2022-11-15T06:41:34;100457.50;;;2.40;61.33
74544;BME280;63016;55.030;38.710;2022-11-15T06:44:00;100465.88;;;2.44;61.50
74544;BME280;63016;55.030;38.710;2022-11-15T06:46:25;100455.38;;;2.47;61.47
74544;BME280;63016;55.030;38.710;2022-11-15T06:48:54;100461.06;;;2.52;61.36
74544;BME280;63016;55.030;38.710;2022-11-15T06:51:20;100458.38;;;2.53;60.82
74544;BME280;63016;55.030;38.710;2022-11-15T06:53:45;100460.75;;;2.56;60.95
74544;BME280;63016;55.030;38.710;2022-11-15T06:56:11;100451.03;;;2.60;61.08
74544;BME280;63016;55.030;38.710;2022-11-15T06:58:36;100452.72;;;2.61;61.05
74544;BME280;63016;55.030;38.710;2022-11-15T07:01:04;100450.66;;;2.66;61.33
74544;BME280;63016;55.030;38.710;2022-11-15T07:03:30;100462.63;;;2.67;61.50
74544;BME280;63016;55.030;38.710;2022-11-15T07:05:57;100454.47;;;2.73;61.61
74544;BME280;63016;55.030;38.710;2022-11-15T07:08:23;100447.44;;;2.75;61.30
74544;BME280;63016;55.030;38.710;2022-11-15T07:10:49;100450.59;;;2.80;61.09
74544;BME280;63016;55.030;38.710;2022-11-15T07:13:15;100448.59;;;2.84;61.07
74544;BME280;63016;55.030;38.710;2022-11-15T07:15:41;100444.06;;;2.88;61.21
74544;BME280;63016;55.030;38.710;2022-11-15T07:18:06;100442.00;;;2.93;61.59
74544;BME280;63016;55.030;38.710;2022-11-15T07:20:32;100441.19;;;2.92;61.18
74544;BME280;63016;55.030;38.710;2022-11-15T07:23:04;100460.38;;;3.01;61.52
74544;BME280;63016;55.030;38.710;2022-11-15T07:25:30;100455.00;;;3.04;60.88
74544;BME280;63016;55.030;38.710;2022-11-15T07:27:57;100451.50;;;3.05;61.27
74544;BME280;63016;55.030;38.710;2022-11-15T07:30:23;100440.88;;;3.09;60.93
74544;BME280;63016;55.030;38.710;2022-11-15T07:32:57;100443.97;;;3.15;61.26
74544;BME280;63016;55.030;38.710;2022-11-15T07:35:24;100436.13;;;3.16;61.00
74544;BME280;63016;55.030;38.710;2022-11-15T07:37:55;100427.25;;;3.20;60.84
74544;BME280;63016;55.030;38.710;2022-11-15T07:40:21;100440.84;;;3.22;60.60
74544;BME280;63016;55.030;38.710;2022-11-15T07:42:49;100439.09;;;3.23;60.54
74544;BME280;63016;55.030;38.710;2022-11-15T07:45:24;100436.00;;;3.30;60.36
74544;BME280;63016;55.030;38.710;2022-11-15T07:47:53;100425.91;;;3.27;60.58
74544;BME280;63016;55.030;38.710;2022-11-15T07:50:19;100434.56;;;3.26;60.44
74544;BME280;63016;55.030;38.710;2022-11-15T07:52:45;100438.69;;;3.29;60.50
74544;BME280;63016;55.030;38.710;2022-11-15T07:55:11;100430.03;;;3.30;60.75
74544;BME280;63016;55.030;38.710;2022-11-15T07:57:37;100420.31;;;3.33;60.90
74544;BME280;63016;55.030;38.710;2022-11-15T08:00:04;100431.34;;;3.35;60.70
74544;BME280;63016;55.030;38.710;2022-11-15T08:02:30;100435.38;;;3.40;61.17
74544;BME280;63016;55.030;38.710;2022-11-15T08:04:55;100424.00;;;3.42;60.91
74544;BME280;63016;55.030;38.710;2022-11-15T08:07:21;100424.75;;;3.44;61.02
74544;BME280;63016;55.030;38.710;2022-11-15T08:09:46;100426.28;;;3.47;60.46
74544;BME280;63016;55.030;38.710;2022-11-15T08:12:12;100415.75;;;3.50;60.53
74544;BME280;63016;55.030;38.710;2022-11-15T08:14:37;100409.84;;;3.48;60.47
74544;BME280;63016;55.030;38.710;2022-11-15T08:17:03;100413.78;;;3.53;61.08
74544;BME280;63016;55.030;38.710;2022-11-15T08:19:29;100408.38;;;3.56;60.70
74544;BME280;63016;55.030;38.710;2022-11-15T08:21:54;100397.97;;;3.58;60.95
74544;BME280;63016;55.030;38.710;2022-11-15T08:24:20;100386.59;;;3.60;60.97
74544;BME280;63016;55.030;38.710;2022-11-15T08:26:45;100387.22;;;3.64;60.82
74544;BME280;63016;55.030;38.710;2022-11-15T08:29:11;100389.56;;;3.67;60.85
74544;BME280;63016;55.030;38.710;2022-11-15T08:31:37;100383.25;;;3.71;60.95
74544;BME280;63016;55.030;38.710;2022-11-15T08:34:03;100385.63;;;3.74;60.86
74544;BME280;63016;55.030;38.710;2022-11-15T08:36:29;100389.72;;;3.77;60.73
74544;BME280;63016;55.030;38.710;2022-11-15T08:38:55;100382.84;;;3.77;60.69
74544;BME280;63016;55.030;38.710;2022-11-15T08:41:29;100386.72;;;3.83;60.66
74544;BME280;63016;55.030;38.710;2022-11-15T08:43:55;100373.09;;;3.81;60.68
74544;BME280;63016;55.030;38.710;2022-11-15T08:46:21;100379.00;;;3.83;60.45
74544;BME280;63016;55.030;38.710;2022-11-15T08:48:47;100369.38;;;3.85;60.68
74544;BME280;63016;55.030;38.710;2022-11-15T08:51:12;100369.97;;;3.89;60.42
74544;BME280;63016;55.030;38.710;2022-11-15T08:53:38;100368.91;;;3.91;60.53
74544;BME280;63016;55.030;38.710;2022-11-15T08:56:07;100368.00;;;3.92;60.36
74544;BME280;63016;55.030;38.710;2022-11-15T08:58:32;100360.13;;;3.94;60.21
74544;BME280;63016;55.030;38.710;2022-11-15T09:00:58;100360.84;;;3.96;60.69
74544;BME280;63016;55.030;38.710;2022-11-15T09:03:23;100354.66;;;3.98;60.40
74544;BME280;63016;55.030;38.710;2022-11-15T09:05:54;100344.44;;;3.97;59.96
74544;BME280;63016;55.030;38.710;2022-11-15T09:08:20;100345.13;;;3.99;60.15
74544;BME280;63016;55.030;38.710;2022-11-15T09:10:45;100345.13;;;3.99;60.22
74544;BME280;63016;55.030;38.710;2022-11-15T09:13:10;100345.13;;;3.99;60.50
74544;BME280;63016;55.030;38.710;2022-11-15T09:15:36;100341.63;;;4.00;60.26
74544;BME280;63016;55.030;38.710;2022-11-15T09:18:02;100333.78;;;4.01;60.24
74544;BME280;63016;55.030;38.710;2022-11-15T09:20:27;100340.66;;;4.01;60.40
74544;BME280;63016;55.030;38.710;2022-11-15T09:22:53;100333.78;;;4.01;60.07
74544;BME280;63016;55.030;38.710;2022-11-15T09:25:18;100327.75;;;4.01;59.93
74544;BME280;63016;55.030;38.710;2022-11-15T09:27:44;100326.03;;;4.01;60.22
74544;BME280;63016;55.030;38.710;2022-11-15T09:30:10;100334.00;;;3.98;60.56
74544;BME280;63016;55.030;38.710;2022-11-15T09:32:35;100340.66;;;4.01;60.28
74544;BME280;63016;55.030;38.710;2022-11-15T09:35:01;100339.63;;;4.03;60.36
74544;BME280;63016;55.030;38.710;2022-11-15T09:37:26;100334.59;;;4.02;60.38
74544;BME280;63016;55.030;38.710;2022-11-15T09:39:52;100332.72;;;4.04;60.47
74544;BME280;63016;55.030;38.710;2022-11-15T09:48:17;100320.16;;;4.10;60.45
74544;BME280;63016;55.030;38.710;2022-11-15T09:50:51;100321.81;;;4.11;60.21
74544;BME280;63016;55.030;38.710;2022-11-15T09:56:26;100308.09;;;4.11;60.33
74544;BME280;63016;55.030;38.710;2022-11-15T10:04:02;100313.00;;;4.14;60.28
74544;BME280;63016;55.030;38.710;2022-11-15T10:06:28;100305.16;;;4.16;60.48
74544;BME280;63016;55.030;38.710;2022-11-15T10:09:12;100300.72;;;4.18;60.46
74544;BME280;63016;55.030;38.710;2022-11-15T10:11:40;100303.06;;;4.21;60.20
74544;BME280;63016;55.030;38.710;2022-11-15T10:14:15;100285.81;;;4.21;60.18
74544;BME280;63016;55.030;38.710;2022-11-15T10:16:53;100287.44;;;4.22;60.35
74544;BME280;63016;55.030;38.710;2022-11-15T10:19:34;100285.47;;;4.26;60.08
74544;BME280;63016;55.030;38.710;2022-11-15T10:22:28;100287.81;;;4.29;60.33
74544;BME280;63016;55.030;38.710;2022-11-15T10:25:12;100283.44;;;4.29;60.08
74544;BME280;63016;55.030;38.710;2022-11-15T10:27:41;100283.44;;;4.29;60.13
74544;BME280;63016;55.030;38.710;2022-11-15T10:30:16;100280.06;;;4.29;60.18
74544;BME280;63016;55.030;38.710;2022-11-15T10:32:44;100279.97;;;4.30;59.84
74544;BME280;63016;55.030;38.710;2022-11-15T10:35:28;100277.25;;;4.32;60.35
74544;BME280;63016;55.030;38.710;2022-11-15T10:38:09;100258.22;;;4.33;60.03
74544;BME280;63016;55.030;38.710;2022-11-15T10:40:36;100253.06;;;4.33;60.30
74544;BME280;63016;55.030;38.710;2022-11-15T10:43:17;100253.88;;;4.33;60.11
74544;BME280;63016;55.030;38.710;2022-11-15T10:45:43;100254.69;;;4.34;60.20
74544;BME280;63016;55.030;38.710;2022-11-15T10:50:39;100260.69;;;4.34;60.49
74544;BME280;63016;55.030;38.710;2022-11-15T10:53:17;100258.81;;;4.36;60.23
74544;BME280;63016;55.030;38.710;2022-11-15T10:55:52;100264.81;;;4.37;60.28
74544;BME280;63016;55.030;38.710;2022-11-15T11:00:53;100261.28;;;4.38;60.11
74544;BME280;63016;55.030;38.710;2022-11-15T11:03:35;100251.28;;;4.33;60.30
74544;BME280;63016;55.030;38.710;2022-11-15T11:06:17;100250.00;;;4.39;60.34
74544;BME280;63016;55.030;38.710;2022-11-15T11:11:23;100246.38;;;4.42;60.39
74544;BME280;63016;55.030;38.710;2022-11-15T11:13:49;100239.31;;;4.44;60.20
74544;BME280;63016;55.030;38.710;2022-11-15T11:21:23;100225.56;;;4.43;60.24
74544;BME280;63016;55.030;38.710;2022-11-15T11:30:02;100221.00;;;4.47;60.09
74544;BME280;63016;55.030;38.710;2022-11-15T11:32:39;100213.38;;;4.45;59.96
74544;BME280;63016;55.030;38.710;2022-11-15T11:35:22;100207.63;;;4.42;59.93
74544;BME280;63016;55.030;38.710;2022-11-15T11:38:03;100202.56;;;4.51;60.62
74544;BME280;63016;55.030;38.710;2022-11-15T11:40:43;100204.69;;;4.46;59.97
74544;BME280;63016;55.030;38.710;2022-11-15T11:46:08;100193.75;;;4.43;59.91
74544;BME280;63016;55.030;38.710;2022-11-15T11:48:48;100189.53;;;4.42;59.83
74544;BME280;63016;55.030;38.710;2022-11-15T11:53:58;100188.81;;;4.39;59.99
74544;BME280;63016;55.030;38.710;2022-11-15T11:56:32;100191.41;;;4.39;59.97
74544;BME280;63016;55.030;38.710;2022-11-15T11:59:21;100193.16;;;4.39;60.09
74544;BME280;63016;55.030;38.710;2022-11-15T12:01:48;100183.09;;;4.36;60.05
74544;BME280;63016;55.030;38.710;2022-11-15T12:04:19;100176.16;;;4.36;60.23
74544;BME280;63016;55.030;38.710;2022-11-15T12:06:53;100182.13;;;4.37;60.15
74544;BME280;63016;55.030;38.710;2022-11-15T12:09:53;100181.19;;;4.38;59.79
74544;BME280;63016;55.030;38.710;2022-11-15T12:12:36;100167.22;;;4.29;59.96
74544;BME280;63016;55.030;38.710;2022-11-15T12:15:16;100180.59;;;4.34;60.12
74544;BME280;63016;55.030;38.710;2022-11-15T12:17:44;100176.38;;;4.33;59.98
74544;BME280;63016;55.030;38.710;2022-11-15T12:20:22;100182.50;;;4.32;59.99
74544;BME280;63016;55.030;38.710;2022-11-15T12:23:03;100186.03;;;4.31;60.03
74544;BME280;63016;55.030;38.710;2022-11-15T12:25:48;100180.84;;;4.31;59.89
74544;BME280;63016;55.030;38.710;2022-11-15T12:28:42;100176.63;;;4.30;59.97
74544;BME280;63016;55.030;38.710;2022-11-15T12:34:03;100173.69;;;4.24;60.27
74544;BME280;63016;55.030;38.710;2022-11-15T12:36:36;100175.44;;;4.23;59.96
74544;BME280;63016;55.030;38.710;2022-11-15T12:39:08;100167.94;;;4.20;59.79
74544;BME280;63016;55.030;38.710;2022-11-15T12:41:41;100165.47;;;4.19;60.17
74544;BME280;63016;55.030;38.710;2022-11-15T12:47:04;100157.84;;;4.17;59.82
74544;BME280;63016;55.030;38.710;2022-11-15T12:49:47;100157.25;;;4.13;59.97
74544;BME280;63016;55.030;38.710;2022-11-15T12:52:14;100163.25;;;4.14;59.87
74544;BME280;63016;55.030;38.710;2022-11-15T13:02:22;100139.88;;;4.04;60.13
74544;BME280;63016;55.030;38.710;2022-11-15T13:04:50;100129.69;;;4.03;59.90
74544;BME280;63016;55.030;38.710;2022-11-15T13:13:02;100129.31;;;3.96;59.79
74544;BME280;63016;55.030;38.710;2022-11-15T13:20:52;100112.78;;;3.88;59.78
74544;BME280;63016;55.030;38.710;2022-11-15T13:23:17;100116.53;;;3.83;59.77
74544;BME280;63016;55.030;38.710;2022-11-15T13:28:34;100119.59;;;3.77;59.83
74544;BME280;63016;55.030;38.710;2022-11-15T13:31:55;100110.31;;;3.75;59.76
74544;BME280;63016;55.030;38.710;2022-11-15T13:34:25;100108.69;;;3.74;59.61
74544;BME280;63016;55.030;38.710;2022-11-15T13:36:51;100091.78;;;3.70;59.69
74544;BME280;63016;55.030;38.710;2022-11-15T13:39:27;100092.81;;;3.67;60.02
74544;BME280;63016;55.030;38.710;2022-11-15T13:41:53;100089.53;;;3.65;59.99
74544;BME280;63016;55.030;38.710;2022-11-15T13:44:28;100083.69;;;3.63;59.78
74544;BME280;63016;55.030;38.710;2022-11-15T13:49:30;100090.97;;;3.58;59.47
74544;BME280;63016;55.030;38.710;2022-11-15T13:51:57;100084.47;;;3.52;59.98
74544;BME280;63016;55.030;38.710;2022-11-15T13:55:03;100077.56;;;3.53;59.88
74544;BME280;63016;55.030;38.710;2022-11-15T14:00:30;100073.81;;;3.46;59.54
74544;BME280;63016;55.030;38.710;2022-11-15T14:03:06;100080.72;;;3.45;60.23
74544;BME280;63016;55.030;38.710;2022-11-15T14:05:32;100078.50;;;3.41;59.76
74544;BME280;63016;55.030;38.710;2022-11-15T14:08:00;100074.28;;;3.40;60.31
74544;BME280;63016;55.030;38.710;2022-11-15T14:10:36;100072.53;;;3.40;60.13
74544;BME280;63016;55.030;38.710;2022-11-15T14:13:03;100068.41;;;3.38;59.99
74544;BME280;63016;55.030;38.710;2022-11-15T14:15:34;100066.75;;;3.37;60.19
74544;BME280;63016;55.030;38.710;2022-11-15T14:18:01;100066.06;;;3.34;60.42
74544;BME280;63016;55.030;38.710;2022-11-15T14:20:33;100064.53;;;3.32;60.14
74544;BME280;63016;55.030;38.710;2022-11-15T14:23:23;100065.47;;;3.31;60.60
74544;BME280;63016;55.030;38.710;2022-11-15T14:25:53;100057.84;;;3.29;60.26
74544;BME280;63016;55.030;38.710;2022-11-15T14:30:48;100055.50;;;3.26;60.83
74544;BME280;63016;55.030;38.710;2022-11-15T14:36:03;100053.13;;;3.23;60.51
74544;BME280;63016;55.030;38.710;2022-11-15T14:38:32;100047.97;;;3.23;60.18
74544;BME280;63016;55.030;38.710;2022-11-15T14:40:59;100040.72;;;3.17;60.56
74544;BME280;63016;55.030;38.710;2022-11-15T14:43:24;100039.69;;;3.20;60.45
74544;BME280;63016;55.030;38.710;2022-11-15T14:45:50;100041.53;;;3.18;60.31